메인 페이지
METAR-TAF:

METAR-TAF

공항 :

마두라이, 인도

위도: 09-50-01N, 경도: 078-05-22E, 고도: 136m

현재 날씨관측

예보는 21분 전, 01:00시(UTC)에 발표되었습니다.
2kt
온도 20°C
습도 88%
기압 1014 hPa
시정: 4000m
고도 10000ft 상공 구름 조금
박무

METAR: VOMD 250100Z 01002KT 4000 BR FEW100 20/18 Q1014 NOSIG

시각: 06:51 (01:21 UTC)

예보

예보는 2 시간 21분 전, 23:00시(UTC)에 발표되었습니다.
예보 대상 시간: 25일 00시부터 26일 06시까지 (UTC)
여러 방향의 바람 2kt
시정: 5000m
고도 2000ft 상공 구름 조금
고도 10000ft 상공 구름 보통
박무
전환 중
25일 00시부터 25일 01시까지 (UTC)
시정: 3000m
박무
전환 중
25일 03시부터 25일 04시까지 (UTC)
시정: 5000m
박무
전환 중
25일 06시부터 25일 07시까지 (UTC)
동북동5kt
시정: 6000m
전환 중
25일 15시부터 25일 16시까지 (UTC)
여러 방향의 바람 2kt
시정: 5000m
박무
일시적
26일 00시부터 26일 03시까지 (UTC)
시정: 3000m
박무

TAF: VOMD 242300Z 2500/2606 VRB02KT 5000 BR FEW020 SCT100 BECMG 2500/2501 3000 BR BECMG 2503/2504 5000 BR BECMG 2506/2507 07005KT 6000 BECMG 2515/2516 VRB02KT 5000 BR TEMPO 2600/2603 3000 BR

4,000개 이상의 공항 관측 자료 및 예보 (METAR 및 TAF 보고).

지도상에서 검색 가능한 기상관측소가 노란 점과 빨간 점으로 표시되어 있습니다.

기상관측소 명을 보려면 표시 위로 마우스를 이동하세요.

날씨 관측과 예보를 보려면 클릭하세요.

지도 변경 : 확대하려면 엑스 표시가 있는 녹색 버튼, 축소하려면 빼기 표시가 있는 녹색 버튼, 다음 페이지의 지도를 보려면 녹색 화살표를 클릭하세요.


METAR-TAF: